sensor_id;sensor_type;location;lat;lon;timestamp;P1;durP1;ratioP1;P2;durP2;ratioP2
40611;SDS011;26317;44.894;20.286;2023-11-21T00:01:17;69.63;;;50.63;;
40611;SDS011;26317;44.894;20.286;2023-11-21T00:03:58;68.53;;;51.22;;
40611;SDS011;26317;44.894;20.286;2023-11-21T00:06:42;70.47;;;51.08;;
40611;SDS011;26317;44.894;20.286;2023-11-21T00:09:26;67.53;;;50.60;;
40611;SDS011;26317;44.894;20.286;2023-11-21T00:12:19;69.38;;;51.22;;
40611;SDS011;26317;44.894;20.286;2023-11-21T00:15:08;68.40;;;50.53;;
40611;SDS011;26317;44.894;20.286;2023-11-21T00:17:55;69.75;;;52.17;;
40611;SDS011;26317;44.894;20.286;2023-11-21T00:20:33;65.25;;;51.22;;
40611;SDS011;26317;44.894;20.286;2023-11-21T00:23:20;69.45;;;51.28;;
40611;SDS011;26317;44.894;20.286;2023-11-21T00:25:56;70.85;;;54.05;;
40611;SDS011;26317;44.894;20.286;2023-11-21T00:28:36;67.65;;;51.13;;
40611;SDS011;26317;44.894;20.286;2023-11-21T00:31:16;67.72;;;50.70;;
40611;SDS011;26317;44.894;20.286;2023-11-21T00:33:51;65.90;;;52.65;;
40611;SDS011;26317;44.894;20.286;2023-11-21T00:36:30;71.47;;;54.53;;
40611;SDS011;26317;44.894;20.286;2023-11-21T00:39:22;65.88;;;51.85;;
40611;SDS011;26317;44.894;20.286;2023-11-21T00:42:02;67.88;;;54.28;;
40611;SDS011;26317;44.894;20.286;2023-11-21T00:44:41;69.75;;;56.88;;
40611;SDS011;26317;44.894;20.286;2023-11-21T00:47:18;70.20;;;55.35;;
40611;SDS011;26317;44.894;20.286;2023-11-21T00:49:54;72.72;;;57.22;;
40611;SDS011;26317;44.894;20.286;2023-11-21T00:52:27;76.65;;;58.53;;
40611;SDS011;26317;44.894;20.286;2023-11-21T00:55:08;69.75;;;55.13;;
40611;SDS011;26317;44.894;20.286;2023-11-21T00:57:51;71.45;;;57.20;;
40611;SDS011;26317;44.894;20.286;2023-11-21T01:00:41;71.07;;;56.78;;
40611;SDS011;26317;44.894;20.286;2023-11-21T01:03:17;73.32;;;56.50;;
40611;SDS011;26317;44.894;20.286;2023-11-21T01:05:50;72.30;;;56.75;;
40611;SDS011;26317;44.894;20.286;2023-11-21T01:08:33;70.07;;;55.55;;
40611;SDS011;26317;44.894;20.286;2023-11-21T01:11:22;69.88;;;56.35;;
40611;SDS011;26317;44.894;20.286;2023-11-21T01:14:06;75.53;;;57.80;;
40611;SDS011;26317;44.894;20.286;2023-11-21T01:16:42;75.65;;;57.80;;
40611;SDS011;26317;44.894;20.286;2023-11-21T01:19:21;75.65;;;56.65;;
40611;SDS011;26317;44.894;20.286;2023-11-21T01:21:57;71.38;;;56.25;;
40611;SDS011;26317;44.894;20.286;2023-11-21T01:24:41;75.88;;;58.78;;
40611;SDS011;26317;44.894;20.286;2023-11-21T01:27:29;71.22;;;57.05;;
40611;SDS011;26317;44.894;20.286;2023-11-21T01:30:06;72.22;;;57.80;;
40611;SDS011;26317;44.894;20.286;2023-11-21T01:32:57;69.95;;;55.50;;
40611;SDS011;26317;44.894;20.286;2023-11-21T01:35:31;74.20;;;58.30;;
40611;SDS011;26317;44.894;20.286;2023-11-21T01:38:31;74.25;;;56.53;;
40611;SDS011;26317;44.894;20.286;2023-11-21T01:41:11;75.22;;;59.55;;
40611;SDS011;26317;44.894;20.286;2023-11-21T01:43:53;76.65;;;57.30;;
40611;SDS011;26317;44.894;20.286;2023-11-21T01:46:39;79.85;;;61.67;;
40611;SDS011;26317;44.894;20.286;2023-11-21T01:51:57;75.63;;;59.03;;
40611;SDS011;26317;44.894;20.286;2023-11-21T01:54:39;79.68;;;59.03;;
40611;SDS011;26317;44.894;20.286;2023-11-21T01:57:15;73.65;;;58.80;;
40611;SDS011;26317;44.894;20.286;2023-11-21T01:59:51;77.75;;;60.00;;
40611;SDS011;26317;44.894;20.286;2023-11-21T02:02:25;70.85;;;57.58;;
40611;SDS011;26317;44.894;20.286;2023-11-21T02:05:03;71.40;;;57.78;;
40611;SDS011;26317;44.894;20.286;2023-11-21T02:07:46;75.78;;;58.22;;
40611;SDS011;26317;44.894;20.286;2023-11-21T02:10:22;72.57;;;56.03;;
40611;SDS011;26317;44.894;20.286;2023-11-21T02:13:03;68.57;;;55.95;;
40611;SDS011;26317;44.894;20.286;2023-11-21T02:15:59;71.32;;;57.72;;
40611;SDS011;26317;44.894;20.286;2023-11-21T02:18:37;70.43;;;55.72;;
40611;SDS011;26317;44.894;20.286;2023-11-21T02:21:21;70.03;;;56.40;;
40611;SDS011;26317;44.894;20.286;2023-11-21T02:24:22;65.00;;;53.70;;
40611;SDS011;26317;44.894;20.286;2023-11-21T02:27:02;73.55;;;56.03;;
40611;SDS011;26317;44.894;20.286;2023-11-21T02:29:45;76.03;;;58.85;;
40611;SDS011;26317;44.894;20.286;2023-11-21T02:32:27;69.78;;;56.40;;
40611;SDS011;26317;44.894;20.286;2023-11-21T02:35:16;68.38;;;53.63;;
40611;SDS011;26317;44.894;20.286;2023-11-21T02:37:58;73.55;;;55.88;;
40611;SDS011;26317;44.894;20.286;2023-11-21T02:40:39;68.05;;;55.13;;
40611;SDS011;26317;44.894;20.286;2023-11-21T02:43:21;65.45;;;54.40;;
40611;SDS011;26317;44.894;20.286;2023-11-21T02:46:02;68.65;;;53.03;;
40611;SDS011;26317;44.894;20.286;2023-11-21T02:51:23;60.10;;;47.65;;
40611;SDS011;26317;44.894;20.286;2023-11-21T02:54:06;60.47;;;48.15;;
40611;SDS011;26317;44.894;20.286;2023-11-21T02:59:29;57.40;;;45.08;;
40611;SDS011;26317;44.894;20.286;2023-11-21T03:02:04;56.50;;;46.15;;
40611;SDS011;26317;44.894;20.286;2023-11-21T03:04:41;58.05;;;47.90;;
40611;SDS011;26317;44.894;20.286;2023-11-21T03:07:28;56.55;;;44.53;;
40611;SDS011;26317;44.894;20.286;2023-11-21T03:10:16;55.38;;;46.00;;
40611;SDS011;26317;44.894;20.286;2023-11-21T03:12:54;55.38;;;44.33;;
40611;SDS011;26317;44.894;20.286;2023-11-21T03:15:33;52.28;;;43.40;;
40611;SDS011;26317;44.894;20.286;2023-11-21T03:18:06;52.67;;;43.60;;
40611;SDS011;26317;44.894;20.286;2023-11-21T03:20:45;54.30;;;44.30;;
40611;SDS011;26317;44.894;20.286;2023-11-21T03:23:26;57.03;;;45.13;;
40611;SDS011;26317;44.894;20.286;2023-11-21T03:26:11;52.65;;;43.75;;
40611;SDS011;26317;44.894;20.286;2023-11-21T03:29:06;49.97;;;43.03;;
40611;SDS011;26317;44.894;20.286;2023-11-21T03:31:43;53.88;;;43.95;;
40611;SDS011;26317;44.894;20.286;2023-11-21T03:34:23;53.38;;;43.53;;
40611;SDS011;26317;44.894;20.286;2023-11-21T03:37:04;58.33;;;45.45;;
40611;SDS011;26317;44.894;20.286;2023-11-21T03:39:39;55.42;;;44.67;;
40611;SDS011;26317;44.894;20.286;2023-11-21T03:42:19;50.78;;;42.83;;
40611;SDS011;26317;44.894;20.286;2023-11-21T03:45:02;56.42;;;44.55;;
40611;SDS011;26317;44.894;20.286;2023-11-21T03:47:42;52.80;;;43.58;;
40611;SDS011;26317;44.894;20.286;2023-11-21T03:50:27;52.15;;;43.00;;
40611;SDS011;26317;44.894;20.286;2023-11-21T03:53:07;52.20;;;43.15;;
40611;SDS011;26317;44.894;20.286;2023-11-21T03:55:41;51.40;;;42.17;;
40611;SDS011;26317;44.894;20.286;2023-11-21T03:58:19;49.28;;;41.33;;
40611;SDS011;26317;44.894;20.286;2023-11-21T04:01:18;48.65;;;41.40;;
40611;SDS011;26317;44.894;20.286;2023-11-21T04:04:10;48.78;;;41.17;;
40611;SDS011;26317;44.894;20.286;2023-11-21T04:06:49;51.88;;;42.20;;
40611;SDS011;26317;44.894;20.286;2023-11-21T04:09:31;48.05;;;41.15;;
40611;SDS011;26317;44.894;20.286;2023-11-21T04:12:11;56.78;;;45.22;;
40611;SDS011;26317;44.894;20.286;2023-11-21T04:14:43;49.90;;;42.65;;
40611;SDS011;26317;44.894;20.286;2023-11-21T04:17:26;51.50;;;42.72;;
40611;SDS011;26317;44.894;20.286;2023-11-21T04:20:09;54.10;;;43.63;;
40611;SDS011;26317;44.894;20.286;2023-11-21T04:22:48;54.90;;;43.00;;
40611;SDS011;26317;44.894;20.286;2023-11-21T04:25:25;50.25;;;41.22;;
40611;SDS011;26317;44.894;20.286;2023-11-21T04:27:58;50.35;;;42.30;;
40611;SDS011;26317;44.894;20.286;2023-11-21T04:30:32;48.03;;;40.60;;
40611;SDS011;26317;44.894;20.286;2023-11-21T04:33:25;54.15;;;44.58;;
40611;SDS011;26317;44.894;20.286;2023-11-21T04:36:07;51.22;;;42.60;;
40611;SDS011;26317;44.894;20.286;2023-11-21T04:38:50;48.22;;;42.75;;
40611;SDS011;26317;44.894;20.286;2023-11-21T04:41:27;49.30;;;41.45;;
40611;SDS011;26317;44.894;20.286;2023-11-21T04:44:05;49.83;;;41.60;;
40611;SDS011;26317;44.894;20.286;2023-11-21T04:46:47;52.80;;;43.17;;
40611;SDS011;26317;44.894;20.286;2023-11-21T04:49:37;50.88;;;42.25;;
40611;SDS011;26317;44.894;20.286;2023-11-21T04:52:12;52.13;;;40.92;;
40611;SDS011;26317;44.894;20.286;2023-11-21T04:54:45;54.38;;;42.28;;
40611;SDS011;26317;44.894;20.286;2023-11-21T04:57:26;53.08;;;41.35;;
40611;SDS011;26317;44.894;20.286;2023-11-21T05:00:05;51.58;;;42.50;;
40611;SDS011;26317;44.894;20.286;2023-11-21T05:02:44;48.97;;;39.97;;
40611;SDS011;26317;44.894;20.286;2023-11-21T05:05:41;50.53;;;41.72;;
40611;SDS011;26317;44.894;20.286;2023-11-21T05:08:17;52.28;;;42.78;;
40611;SDS011;26317;44.894;20.286;2023-11-21T05:10:52;56.58;;;43.50;;
40611;SDS011;26317;44.894;20.286;2023-11-21T05:13:38;51.05;;;42.47;;
40611;SDS011;26317;44.894;20.286;2023-11-21T05:16:25;48.42;;;41.28;;
40611;SDS011;26317;44.894;20.286;2023-11-21T05:18:58;53.38;;;41.95;;
40611;SDS011;26317;44.894;20.286;2023-11-21T05:21:44;47.40;;;39.92;;
40611;SDS011;26317;44.894;20.286;2023-11-21T05:24:21;54.05;;;41.78;;
40611;SDS011;26317;44.894;20.286;2023-11-21T05:26:51;51.03;;;41.47;;
40611;SDS011;26317;44.894;20.286;2023-11-21T05:29:27;52.22;;;39.65;;
40611;SDS011;26317;44.894;20.286;2023-11-21T05:32:08;52.88;;;42.15;;
40611;SDS011;26317;44.894;20.286;2023-11-21T05:34:44;49.85;;;40.60;;
40611;SDS011;26317;44.894;20.286;2023-11-21T05:37:30;47.55;;;40.08;;
40611;SDS011;26317;44.894;20.286;2023-11-21T05:40:07;45.33;;;38.70;;
40611;SDS011;26317;44.894;20.286;2023-11-21T05:42:47;50.75;;;39.53;;
40611;SDS011;26317;44.894;20.286;2023-11-21T05:45:23;49.03;;;38.95;;
40611;SDS011;26317;44.894;20.286;2023-11-21T05:48:06;49.08;;;39.00;;
40611;SDS011;26317;44.894;20.286;2023-11-21T05:50:40;46.50;;;38.15;;
40611;SDS011;26317;44.894;20.286;2023-11-21T05:53:33;51.53;;;38.42;;
40611;SDS011;26317;44.894;20.286;2023-11-21T05:56:11;48.22;;;38.22;;
40611;SDS011;26317;44.894;20.286;2023-11-21T05:58:49;47.38;;;38.10;;
40611;SDS011;26317;44.894;20.286;2023-11-21T06:01:26;50.30;;;38.17;;
40611;SDS011;26317;44.894;20.286;2023-11-21T06:04:02;46.85;;;38.80;;
40611;SDS011;26317;44.894;20.286;2023-11-21T06:06:40;48.97;;;39.67;;
40611;SDS011;26317;44.894;20.286;2023-11-21T06:09:33;49.72;;;37.33;;
40611;SDS011;26317;44.894;20.286;2023-11-21T06:12:15;52.50;;;38.00;;
40611;SDS011;26317;44.894;20.286;2023-11-21T06:14:51;48.28;;;37.78;;
40611;SDS011;26317;44.894;20.286;2023-11-21T06:17:52;44.65;;;38.03;;
40611;SDS011;26317;44.894;20.286;2023-11-21T06:20:35;49.60;;;39.72;;
40611;SDS011;26317;44.894;20.286;2023-11-21T06:23:21;44.83;;;36.67;;
40611;SDS011;26317;44.894;20.286;2023-11-21T06:26:08;46.08;;;39.08;;
40611;SDS011;26317;44.894;20.286;2023-11-21T06:28:45;45.00;;;37.08;;
40611;SDS011;26317;44.894;20.286;2023-11-21T06:31:24;41.45;;;34.42;;
40611;SDS011;26317;44.894;20.286;2023-11-21T06:34:02;44.45;;;36.67;;
40611;SDS011;26317;44.894;20.286;2023-11-21T06:36:41;43.92;;;35.83;;
40611;SDS011;26317;44.894;20.286;2023-11-21T06:39:18;45.42;;;35.72;;
40611;SDS011;26317;44.894;20.286;2023-11-21T06:42:05;49.08;;;37.30;;
40611;SDS011;26317;44.894;20.286;2023-11-21T06:44:45;43.10;;;35.67;;
40611;SDS011;26317;44.894;20.286;2023-11-21T06:50:02;43.95;;;36.03;;
40611;SDS011;26317;44.894;20.286;2023-11-21T06:52:40;42.00;;;33.88;;
40611;SDS011;26317;44.894;20.286;2023-11-21T06:55:15;41.85;;;35.80;;
40611;SDS011;26317;44.894;20.286;2023-11-21T06:58:12;40.67;;;34.55;;
40611;SDS011;26317;44.894;20.286;2023-11-21T07:00:51;47.88;;;34.75;;
40611;SDS011;26317;44.894;20.286;2023-11-21T07:03:38;42.15;;;33.80;;
40611;SDS011;26317;44.894;20.286;2023-11-21T07:06:18;44.03;;;35.40;;
40611;SDS011;26317;44.894;20.286;2023-11-21T07:08:49;42.17;;;35.55;;
40611;SDS011;26317;44.894;20.286;2023-11-21T07:11:38;41.22;;;34.83;;
40611;SDS011;26317;44.894;20.286;2023-11-21T07:14:19;43.58;;;34.45;;
40611;SDS011;26317;44.894;20.286;2023-11-21T07:16:58;40.75;;;35.63;;
40611;SDS011;26317;44.894;20.286;2023-11-21T07:19:37;41.25;;;34.30;;
40611;SDS011;26317;44.894;20.286;2023-11-21T07:22:13;41.40;;;34.47;;
40611;SDS011;26317;44.894;20.286;2023-11-21T07:24:53;45.97;;;35.60;;
40611;SDS011;26317;44.894;20.286;2023-11-21T07:27:30;43.28;;;34.88;;
40611;SDS011;26317;44.894;20.286;2023-11-21T07:30:26;40.85;;;35.03;;
40611;SDS011;26317;44.894;20.286;2023-11-21T07:33:03;42.60;;;34.50;;
40611;SDS011;26317;44.894;20.286;2023-11-21T07:35:44;43.70;;;35.50;;
40611;SDS011;26317;44.894;20.286;2023-11-21T07:38:27;51.87;;;36.87;;
40611;SDS011;26317;44.894;20.286;2023-11-21T07:41:23;44.30;;;36.60;;
40611;SDS011;26317;44.894;20.286;2023-11-21T07:44:06;48.53;;;37.05;;
40611;SDS011;26317;44.894;20.286;2023-11-21T07:46:56;44.17;;;36.95;;
40611;SDS011;26317;44.894;20.286;2023-11-21T07:49:43;42.15;;;35.17;;
40611;SDS011;26317;44.894;20.286;2023-11-21T07:52:24;44.22;;;36.30;;
40611;SDS011;26317;44.894;20.286;2023-11-21T07:55:06;40.53;;;34.25;;
40611;SDS011;26317;44.894;20.286;2023-11-21T07:57:42;40.75;;;35.70;;
40611;SDS011;26317;44.894;20.286;2023-11-21T08:03:19;39.95;;;32.60;;
40611;SDS011;26317;44.894;20.286;2023-11-21T08:06:04;44.47;;;34.95;;
40611;SDS011;26317;44.894;20.286;2023-11-21T08:09:06;41.97;;;34.47;;
40611;SDS011;26317;44.894;20.286;2023-11-21T08:11:47;41.55;;;34.63;;
40611;SDS011;26317;44.894;20.286;2023-11-21T08:14:22;40.22;;;33.35;;
40611;SDS011;26317;44.894;20.286;2023-11-21T08:16:59;42.00;;;34.28;;
40611;SDS011;26317;44.894;20.286;2023-11-21T08:19:39;44.50;;;33.73;;
40611;SDS011;26317;44.894;20.286;2023-11-21T08:22:23;46.97;;;37.42;;
40611;SDS011;26317;44.894;20.286;2023-11-21T08:27:50;47.72;;;38.50;;
40611;SDS011;26317;44.894;20.286;2023-11-21T08:30:35;45.47;;;37.30;;
40611;SDS011;26317;44.894;20.286;2023-11-21T08:33:17;48.13;;;38.17;;
40611;SDS011;26317;44.894;20.286;2023-11-21T08:36:06;46.03;;;36.72;;
40611;SDS011;26317;44.894;20.286;2023-11-21T08:38:42;46.95;;;38.53;;
40611;SDS011;26317;44.894;20.286;2023-11-21T08:41:21;40.80;;;35.42;;
40611;SDS011;26317;44.894;20.286;2023-11-21T08:44:06;48.22;;;38.22;;
40611;SDS011;26317;44.894;20.286;2023-11-21T08:46:47;51.72;;;39.35;;
40611;SDS011;26317;44.894;20.286;2023-11-21T08:49:35;45.95;;;36.80;;
40611;SDS011;26317;44.894;20.286;2023-11-21T08:52:14;41.65;;;34.72;;
40611;SDS011;26317;44.894;20.286;2023-11-21T08:54:56;48.70;;;36.10;;
40611;SDS011;26317;44.894;20.286;2023-11-21T08:57:33;42.90;;;34.55;;
40611;SDS011;26317;44.894;20.286;2023-11-21T09:00:20;39.95;;;34.08;;
40611;SDS011;26317;44.894;20.286;2023-11-21T09:03:01;42.67;;;33.33;;
40611;SDS011;26317;44.894;20.286;2023-11-21T09:05:46;38.85;;;31.73;;
40611;SDS011;26317;44.894;20.286;2023-11-21T09:08:28;37.88;;;31.23;;
40611;SDS011;26317;44.894;20.286;2023-11-21T09:11:13;46.28;;;33.75;;
40611;SDS011;26317;44.894;20.286;2023-11-21T09:13:58;43.35;;;33.22;;
40611;SDS011;26317;44.894;20.286;2023-11-21T09:16:33;40.83;;;32.08;;
40611;SDS011;26317;44.894;20.286;2023-11-21T09:19:08;37.33;;;32.10;;
40611;SDS011;26317;44.894;20.286;2023-11-21T09:21:44;42.60;;;32.58;;
40611;SDS011;26317;44.894;20.286;2023-11-21T09:24:25;41.92;;;34.20;;
40611;SDS011;26317;44.894;20.286;2023-11-21T09:27:06;44.45;;;34.90;;
40611;SDS011;26317;44.894;20.286;2023-11-21T09:29:49;38.38;;;32.08;;
40611;SDS011;26317;44.894;20.286;2023-11-21T09:32:33;44.92;;;35.33;;
40611;SDS011;26317;44.894;20.286;2023-11-21T09:35:19;42.65;;;32.80;;
40611;SDS011;26317;44.894;20.286;2023-11-21T09:37:56;42.27;;;32.87;;
40611;SDS011;26317;44.894;20.286;2023-11-21T09:43:59;39.85;;;29.23;;
40611;SDS011;26317;44.894;20.286;2023-11-21T09:46:44;41.00;;;32.65;;
40611;SDS011;26317;44.894;20.286;2023-11-21T09:49:28;41.05;;;30.98;;
40611;SDS011;26317;44.894;20.286;2023-11-21T09:52:11;41.38;;;31.33;;
40611;SDS011;26317;44.894;20.286;2023-11-21T09:54:56;43.22;;;32.22;;
40611;SDS011;26317;44.894;20.286;2023-11-21T09:57:38;43.97;;;31.88;;
40611;SDS011;26317;44.894;20.286;2023-11-21T10:00:33;39.95;;;30.50;;
40611;SDS011;26317;44.894;20.286;2023-11-21T10:03:18;61.15;;;43.90;;
40611;SDS011;26317;44.894;20.286;2023-11-21T10:05:56;42.45;;;32.60;;
40611;SDS011;26317;44.894;20.286;2023-11-21T10:08:39;34.22;;;27.20;;
40611;SDS011;26317;44.894;20.286;2023-11-21T10:11:28;35.05;;;28.90;;
40611;SDS011;26317;44.894;20.286;2023-11-21T10:14:20;42.03;;;33.22;;
40611;SDS011;26317;44.894;20.286;2023-11-21T10:17:06;36.00;;;29.08;;
40611;SDS011;26317;44.894;20.286;2023-11-21T10:19:53;36.55;;;30.33;;
40611;SDS011;26317;44.894;20.286;2023-11-21T10:22:33;33.22;;;28.80;;
40611;SDS011;26317;44.894;20.286;2023-11-21T10:27:59;30.23;;;25.52;;
40611;SDS011;26317;44.894;20.286;2023-11-21T10:30:42;28.27;;;23.88;;
40611;SDS011;26317;44.894;20.286;2023-11-21T10:33:15;30.45;;;26.02;;
40611;SDS011;26317;44.894;20.286;2023-11-21T10:35:51;45.92;;;35.95;;
40611;SDS011;26317;44.894;20.286;2023-11-21T10:38:31;36.38;;;28.63;;
40611;SDS011;26317;44.894;20.286;2023-11-21T10:41:21;35.45;;;26.30;;
40611;SDS011;26317;44.894;20.286;2023-11-21T10:44:13;35.20;;;24.92;;
40611;SDS011;26317;44.894;20.286;2023-11-21T10:47:05;35.85;;;27.75;;
40611;SDS011;26317;44.894;20.286;2023-11-21T10:49:44;35.85;;;26.88;;
40611;SDS011;26317;44.894;20.286;2023-11-21T10:52:26;38.53;;;30.42;;
40611;SDS011;26317;44.894;20.286;2023-11-21T10:55:18;38.85;;;28.08;;
40611;SDS011;26317;44.894;20.286;2023-11-21T10:57:55;31.40;;;26.70;;
40611;SDS011;26317;44.894;20.286;2023-11-21T11:00:34;32.15;;;26.15;;
40611;SDS011;26317;44.894;20.286;2023-11-21T11:03:28;36.42;;;26.40;;
40611;SDS011;26317;44.894;20.286;2023-11-21T11:06:08;39.30;;;28.70;;
40611;SDS011;26317;44.894;20.286;2023-11-21T11:08:47;39.22;;;28.58;;
40611;SDS011;26317;44.894;20.286;2023-11-21T11:11:26;33.15;;;25.40;;
40611;SDS011;26317;44.894;20.286;2023-11-21T11:14:06;32.60;;;25.15;;
40611;SDS011;26317;44.894;20.286;2023-11-21T11:16:48;33.25;;;25.42;;
40611;SDS011;26317;44.894;20.286;2023-11-21T11:19:34;28.23;;;23.45;;
40611;SDS011;26317;44.894;20.286;2023-11-21T11:22:13;29.90;;;26.20;;
40611;SDS011;26317;44.894;20.286;2023-11-21T11:28:07;32.03;;;26.35;;
40611;SDS011;26317;44.894;20.286;2023-11-21T11:31:06;34.47;;;27.23;;
40611;SDS011;26317;44.894;20.286;2023-11-21T11:34:04;33.05;;;27.10;;
40611;SDS011;26317;44.894;20.286;2023-11-21T11:37:01;33.90;;;25.00;;
40611;SDS011;26317;44.894;20.286;2023-11-21T11:39:52;33.10;;;27.15;;
40611;SDS011;26317;44.894;20.286;2023-11-21T11:42:36;35.42;;;28.48;;
40611;SDS011;26317;44.894;20.286;2023-11-21T11:45:20;32.88;;;26.35;;
40611;SDS011;26317;44.894;20.286;2023-11-21T11:48:00;35.97;;;27.25;;
40611;SDS011;26317;44.894;20.286;2023-11-21T11:50:36;28.23;;;24.60;;
40611;SDS011;26317;44.894;20.286;2023-11-21T11:53:35;29.75;;;24.42;;
40611;SDS011;26317;44.894;20.286;2023-11-21T11:56:27;34.25;;;27.33;;
40611;SDS011;26317;44.894;20.286;2023-11-21T11:59:22;32.78;;;28.02;;
40611;SDS011;26317;44.894;20.286;2023-11-21T12:02:22;40.42;;;33.97;;
40611;SDS011;26317;44.894;20.286;2023-11-21T12:05:02;32.53;;;28.92;;
40611;SDS011;26317;44.894;20.286;2023-11-21T12:10:22;34.13;;;26.58;;
40611;SDS011;26317;44.894;20.286;2023-11-21T12:12:59;33.28;;;25.60;;
40611;SDS011;26317;44.894;20.286;2023-11-21T12:15:39;49.70;;;34.78;;
40611;SDS011;26317;44.894;20.286;2023-11-21T12:18:16;57.28;;;38.42;;
40611;SDS011;26317;44.894;20.286;2023-11-21T12:20:47;74.28;;;47.58;;
40611;SDS011;26317;44.894;20.286;2023-11-21T12:26:35;40.78;;;33.33;;
40611;SDS011;26317;44.894;20.286;2023-11-21T12:29:25;43.85;;;33.92;;
40611;SDS011;26317;44.894;20.286;2023-11-21T12:31:59;43.92;;;34.30;;
40611;SDS011;26317;44.894;20.286;2023-11-21T12:34:33;38.78;;;32.97;;
40611;SDS011;26317;44.894;20.286;2023-11-21T12:37:10;46.63;;;36.00;;
40611;SDS011;26317;44.894;20.286;2023-11-21T12:39:55;34.58;;;29.20;;
40611;SDS011;26317;44.894;20.286;2023-11-21T12:42:41;45.80;;;30.08;;
40611;SDS011;26317;44.894;20.286;2023-11-21T12:45:23;36.65;;;30.80;;
40611;SDS011;26317;44.894;20.286;2023-11-21T12:48:01;42.78;;;34.05;;
40611;SDS011;26317;44.894;20.286;2023-11-21T12:50:48;57.63;;;48.90;;
40611;SDS011;26317;44.894;20.286;2023-11-21T12:53:27;69.13;;;49.97;;
40611;SDS011;26317;44.894;20.286;2023-11-21T12:56:10;64.93;;;48.53;;
40611;SDS011;26317;44.894;20.286;2023-11-21T12:58:59;63.28;;;48.00;;
40611;SDS011;26317;44.894;20.286;2023-11-21T13:04:16;51.70;;;39.42;;
40611;SDS011;26317;44.894;20.286;2023-11-21T13:06:53;45.60;;;37.03;;
40611;SDS011;26317;44.894;20.286;2023-11-21T13:09:37;43.20;;;33.75;;
40611;SDS011;26317;44.894;20.286;2023-11-21T13:12:20;42.60;;;34.45;;
40611;SDS011;26317;44.894;20.286;2023-11-21T13:15:02;42.33;;;32.88;;
40611;SDS011;26317;44.894;20.286;2023-11-21T13:17:44;45.65;;;37.97;;
40611;SDS011;26317;44.894;20.286;2023-11-21T13:20:25;46.78;;;37.53;;
40611;SDS011;26317;44.894;20.286;2023-11-21T13:23:13;46.40;;;37.75;;
40611;SDS011;26317;44.894;20.286;2023-11-21T13:25:50;41.45;;;33.28;;
40611;SDS011;26317;44.894;20.286;2023-11-21T13:28:35;42.88;;;34.55;;
40611;SDS011;26317;44.894;20.286;2023-11-21T13:31:32;41.95;;;35.80;;
40611;SDS011;26317;44.894;20.286;2023-11-21T13:34:09;43.65;;;36.13;;
40611;SDS011;26317;44.894;20.286;2023-11-21T13:36:58;42.75;;;34.03;;
40611;SDS011;26317;44.894;20.286;2023-11-21T13:39:39;42.00;;;33.67;;
40611;SDS011;26317;44.894;20.286;2023-11-21T13:42:23;42.67;;;33.30;;
40611;SDS011;26317;44.894;20.286;2023-11-21T13:45:11;39.53;;;33.70;;
40611;SDS011;26317;44.894;20.286;2023-11-21T13:47:52;40.70;;;34.65;;
40611;SDS011;26317;44.894;20.286;2023-11-21T13:50:28;38.63;;;32.85;;
40611;SDS011;26317;44.894;20.286;2023-11-21T13:53:17;47.22;;;34.50;;
40611;SDS011;26317;44.894;20.286;2023-11-21T13:55:57;47.03;;;36.78;;
40611;SDS011;26317;44.894;20.286;2023-11-21T13:58:40;37.33;;;33.05;;
40611;SDS011;26317;44.894;20.286;2023-11-21T14:01:22;52.95;;;39.55;;
40611;SDS011;26317;44.894;20.286;2023-11-21T14:04:22;48.30;;;40.47;;
40611;SDS011;26317;44.894;20.286;2023-11-21T14:07:13;48.78;;;35.72;;
40611;SDS011;26317;44.894;20.286;2023-11-21T14:10:02;50.47;;;38.85;;
40611;SDS011;26317;44.894;20.286;2023-11-21T14:12:43;45.58;;;36.95;;
40611;SDS011;26317;44.894;20.286;2023-11-21T14:15:20;49.05;;;37.40;;
40611;SDS011;26317;44.894;20.286;2023-11-21T14:17:53;49.42;;;38.45;;
40611;SDS011;26317;44.894;20.286;2023-11-21T14:20:46;53.33;;;43.47;;
40611;SDS011;26317;44.894;20.286;2023-11-21T14:23:26;61.65;;;48.50;;
40611;SDS011;26317;44.894;20.286;2023-11-21T14:26:02;59.95;;;46.80;;
40611;SDS011;26317;44.894;20.286;2023-11-21T14:28:42;47.38;;;39.90;;
40611;SDS011;26317;44.894;20.286;2023-11-21T14:31:19;49.83;;;42.28;;
40611;SDS011;26317;44.894;20.286;2023-11-21T14:34:00;45.63;;;36.55;;
40611;SDS011;26317;44.894;20.286;2023-11-21T14:36:46;49.45;;;36.83;;
40611;SDS011;26317;44.894;20.286;2023-11-21T14:39:22;45.58;;;35.65;;
40611;SDS011;26317;44.894;20.286;2023-11-21T14:42:12;42.83;;;34.53;;
40611;SDS011;26317;44.894;20.286;2023-11-21T14:44:55;40.95;;;32.95;;
40611;SDS011;26317;44.894;20.286;2023-11-21T14:47:35;44.55;;;35.70;;
40611;SDS011;26317;44.894;20.286;2023-11-21T14:50:17;44.45;;;35.38;;
40611;SDS011;26317;44.894;20.286;2023-11-21T14:53:12;47.22;;;35.67;;
40611;SDS011;26317;44.894;20.286;2023-11-21T14:55:45;44.33;;;33.22;;
40611;SDS011;26317;44.894;20.286;2023-11-21T14:58:36;44.33;;;33.53;;
40611;SDS011;26317;44.894;20.286;2023-11-21T15:01:19;48.58;;;39.20;;
40611;SDS011;26317;44.894;20.286;2023-11-21T15:04:12;35.25;;;30.17;;
40611;SDS011;26317;44.894;20.286;2023-11-21T15:07:03;35.03;;;29.30;;
40611;SDS011;26317;44.894;20.286;2023-11-21T15:12:17;40.33;;;31.88;;
40611;SDS011;26317;44.894;20.286;2023-11-21T15:14:51;38.17;;;32.17;;
40611;SDS011;26317;44.894;20.286;2023-11-21T15:17:26;38.78;;;32.05;;
40611;SDS011;26317;44.894;20.286;2023-11-21T15:20:14;56.67;;;43.40;;
40611;SDS011;26317;44.894;20.286;2023-11-21T15:22:53;80.70;;;59.35;;
40611;SDS011;26317;44.894;20.286;2023-11-21T15:25:47;78.97;;;61.72;;
40611;SDS011;26317;44.894;20.286;2023-11-21T15:28:23;66.05;;;51.40;;
40611;SDS011;26317;44.894;20.286;2023-11-21T15:31:01;57.72;;;41.85;;
40611;SDS011;26317;44.894;20.286;2023-11-21T15:33:48;49.97;;;37.97;;
40611;SDS011;26317;44.894;20.286;2023-11-21T15:36:38;43.42;;;34.22;;
40611;SDS011;26317;44.894;20.286;2023-11-21T15:39:17;43.63;;;32.10;;
40611;SDS011;26317;44.894;20.286;2023-11-21T15:41:56;35.95;;;28.65;;
40611;SDS011;26317;44.894;20.286;2023-11-21T15:44:39;35.67;;;28.58;;
40611;SDS011;26317;44.894;20.286;2023-11-21T15:47:14;42.30;;;28.27;;
40611;SDS011;26317;44.894;20.286;2023-11-21T15:49:52;35.08;;;26.15;;
40611;SDS011;26317;44.894;20.286;2023-11-21T15:52:28;31.40;;;26.38;;
40611;SDS011;26317;44.894;20.286;2023-11-21T15:55:25;34.08;;;25.88;;
40611;SDS011;26317;44.894;20.286;2023-11-21T15:58:14;35.28;;;26.73;;
40611;SDS011;26317;44.894;20.286;2023-11-21T16:00:54;35.55;;;27.45;;
40611;SDS011;26317;44.894;20.286;2023-11-21T16:03:34;39.05;;;30.30;;
40611;SDS011;26317;44.894;20.286;2023-11-21T16:06:09;42.25;;;29.65;;
40611;SDS011;26317;44.894;20.286;2023-11-21T16:08:49;40.95;;;30.10;;
40611;SDS011;26317;44.894;20.286;2023-11-21T16:11:27;38.17;;;29.10;;